Terminal Aerodrome Forecast
Issued by NWS

Home | Current Version | Previous Version | Text Only | Print | Product List | Glossary On
Versions: 1 2 3 4 5 6 7 8 9 10 11 12 13
000
FTUS44 KLIX 312300
TAFGPT
TAF
KGPT 312339Z 0100/0124 10010KT P6SM SCT150
     FM010700 11007KT P6SM BKN100
     FM011000 12007KT P6SM BKN050
     FM011700 15008KT P6SM OVC035
     FM012000 20008KT P6SM VCSH OVC035=

USA.gov is the U.S. government's official web portal to all federal, state and local government web resources and services.